Time;durP1;ratioP1;P1;durP2;ratioP2;P2;SDS_P1;SDS_P2;PMS_P1;PMS_P2;Temp;Humidity;BMP_temperature;BMP_pressure;BME280_temperature;BME280_humidity;BME280_pressure;Samples;Min_cycle;Max_cycle;Signal;HPM_P1;HPM_P2
2021/10/28 00:13:48;;;;;;;6.00;5.50;;;;;;;10.90;88.91;101082.94;5069384;28;20271;-79
2021/10/28 00:16:18;;;;;;;5.97;5.40;;;;;;;10.88;88.89;101079.47;5078394;28;20193;-80
2021/10/28 00:18:48;;;;;;;5.40;5.00;;;;;;;10.91;88.34;101082.06;5070235;28;20204;-80
2021/10/28 00:21:16;;;;;;;6.63;4.97;;;;;;;10.88;88.45;101095.16;5076120;28;20194;-80
2021/10/28 00:23:45;;;;;;;6.90;6.30;;;;;;;10.88;88.35;101100.38;5060693;28;20226;-80
2021/10/28 00:26:13;;;;;;;6.30;5.63;;;;;;;10.87;88.25;101107.34;5070782;28;20205;-80
2021/10/28 00:28:40;;;;;;;5.17;4.77;;;;;;;10.84;88.27;101115.22;5066708;28;20293;-80
2021/10/28 00:31:07;;;;;;;6.07;4.90;;;;;;;10.80;88.78;101097.88;5070476;28;20641;-79
2021/10/28 00:33:35;;;;;;;4.47;4.17;;;;;;;10.77;89.04;101083.97;5074546;28;20221;-79
2021/10/28 00:36:03;;;;;;;6.87;5.40;;;;;;;10.78;88.96;101080.44;5068374;28;20693;-79
2021/10/28 00:38:33;;;;;;;5.80;5.40;;;;;;;10.74;89.23;101079.59;5079115;28;20193;-80
2021/10/28 00:41:00;;;;;;;6.53;5.53;;;;;;;10.72;89.75;101061.38;5071166;28;20246;-80
2021/10/28 00:43:27;;;;;;;6.87;6.20;;;;;;;10.77;89.77;101055.25;5077591;28;20223;-79
2021/10/28 00:45:54;;;;;;;7.07;6.37;;;;;;;10.83;89.56;101056.03;5064658;28;20190;-80
2021/10/28 00:48:21;;;;;;;6.90;6.30;;;;;;;10.87;89.58;101060.34;5068672;28;20225;-80
2021/10/28 00:50:51;;;;;;;7.17;6.30;;;;;;;10.89;89.22;101073.38;5070542;28;20216;-79
2021/10/28 00:53:18;;;;;;;6.77;6.10;;;;;;;10.89;89.65;101061.19;5066260;28;20238;-80
2021/10/28 00:55:54;;;;;;;6.47;5.97;;;;;;;10.96;88.94;101075.06;5064304;28;20300;-79
2021/10/28 00:58:22;;;;;;;24.00;7.13;;;;;;;10.96;88.73;101095.06;5069320;28;20198;-79
2021/10/28 01:00:50;;;;;;;6.63;6.03;;;;;;;10.98;88.76;101088.97;5067633;28;20198;-80
2021/10/28 01:03:16;;;;;;;6.13;5.70;;;;;;;10.99;88.26;101097.66;5075046;28;20251;-80
2021/10/28 01:05:43;;;;;;;5.03;4.63;;;;;;;10.96;88.20;101098.59;5070234;28;20200;-80
2021/10/28 01:08:09;;;;;;;4.70;4.40;;;;;;;10.92;88.18;101099.47;5073180;28;20223;-80
2021/10/28 01:10:36;;;;;;;5.43;5.03;;;;;;;10.82;88.65;101095.22;5068034;28;20244;-80
2021/10/28 01:13:04;;;;;;;6.40;5.90;;;;;;;10.83;88.58;101087.38;5063976;28;20298;-80
2021/10/28 01:15:30;;;;;;;5.60;5.00;;;;;;;10.86;88.86;101089.06;5062089;28;20197;-80
2021/10/28 01:17:57;;;;;;;6.30;5.67;;;;;;;10.91;88.76;101090.78;5059200;28;20228;-80
2021/10/28 01:20:24;;;;;;;5.73;5.17;;;;;;;10.86;88.89;101087.34;5064675;28;20263;-80
2021/10/28 01:22:51;;;;;;;5.77;5.27;;;;;;;10.78;88.94;101077.84;5068684;28;20225;-80
2021/10/28 01:25:17;;;;;;;8.67;6.43;;;;;;;10.76;89.44;101067.41;5059120;28;20660;-79
2021/10/28 01:27:44;;;;;;;5.77;5.37;;;;;;;10.82;89.31;101067.38;5067790;28;20230;-80
2021/10/28 01:30:11;;;;;;;5.93;5.33;;;;;;;10.83;88.99;101063.88;5078161;28;20217;-80
2021/10/28 01:32:37;;;;;;;5.97;5.43;;;;;;;10.84;89.21;101073.44;5070505;28;20316;-80
2021/10/28 01:35:04;;;;;;;5.70;4.43;;;;;;;10.86;88.82;101084.75;5061090;28;20688;-79
2021/10/28 01:37:32;;;;;;;5.37;4.60;;;;;;;10.83;88.65;101086.50;5060225;28;20301;-80
2021/10/28 01:39:58;;;;;;;5.87;4.77;;;;;;;10.79;88.87;101083.06;5067969;28;20194;-79
2021/10/28 01:42:25;;;;;;;5.17;4.57;;;;;;;10.80;88.79;101083.91;5067252;28;20202;-79
2021/10/28 01:44:51;;;;;;;6.07;5.53;;;;;;;10.76;88.68;101082.22;5074029;28;20197;-80
2021/10/28 01:47:17;;;;;;;6.60;6.00;;;;;;;10.78;88.56;101086.53;5076685;28;20262;-79
2021/10/28 01:49:44;;;;;;;8.37;6.03;;;;;;;10.74;88.87;101082.22;5064594;28;20197;-79
2021/10/28 01:52:12;;;;;;;6.33;5.73;;;;;;;10.73;88.65;101083.97;5070273;28;20208;-81
2021/10/28 01:54:41;;;;;;;5.60;5.20;;;;;;;10.71;88.71;101077.03;5072198;28;20759;-80
2021/10/28 01:57:16;;;;;;;6.23;5.73;;;;;;;10.69;88.86;101079.66;5067943;28;20213;-79
2021/10/28 01:59:42;;;;;;;9.17;6.83;;;;;;;10.68;88.97;101070.13;5071094;28;20200;-80
2021/10/28 02:02:09;;;;;;;7.57;6.80;;;;;;;10.68;88.83;101071.84;5064574;28;20203;-80
2021/10/28 02:04:35;;;;;;;7.20;6.53;;;;;;;10.67;88.81;101073.59;5062183;28;20310;-80
2021/10/28 02:07:02;;;;;;;7.13;6.47;;;;;;;10.70;88.69;101080.53;5070221;28;20223;-80
2021/10/28 02:09:28;;;;;;;9.97;7.00;;;;;;;10.63;88.95;101069.28;5076769;28;20288;-80
2021/10/28 02:11:56;;;;;;;7.60;6.80;;;;;;;10.60;89.16;101061.47;5078613;28;20223;-80
2021/10/28 02:14:22;;;;;;;6.63;6.13;;;;;;;10.62;89.05;101057.09;5063656;28;20271;-80
2021/10/28 02:16:49;;;;;;;7.30;6.30;;;;;;;10.63;88.99;101064.06;5069325;28;20207;-80
2021/10/28 02:19:15;;;;;;;6.70;6.07;;;;;;;10.63;88.74;101074.50;5077714;28;20277;-80
2021/10/28 02:21:42;;;;;;;6.40;5.80;;;;;;;10.62;89.07;101072.75;5069807;28;20230;-80
2021/10/28 02:24:09;;;;;;;6.73;5.93;;;;;;;10.60;88.58;101074.50;5062274;28;20835;-80
2021/10/28 02:26:35;;;;;;;8.17;6.07;;;;;;;10.58;88.75;101072.81;5066833;28;20676;-79
2021/10/28 02:29:03;;;;;;;7.47;6.73;;;;;;;10.60;88.72;101086.72;5069443;28;20209;-80
2021/10/28 02:31:32;;;;;;;7.87;7.03;;;;;;;10.59;88.67;101071.94;5069755;28;20230;-80
2021/10/28 02:33:58;;;;;;;7.80;7.27;;;;;;;10.61;88.82;101076.25;5067146;28;20280;-80
2021/10/28 02:36:25;;;;;;;8.40;7.70;;;;;;;10.51;89.34;101064.16;5067446;28;20197;-80
2021/10/28 02:38:51;;;;;;;8.77;7.87;;;;;;;10.52;89.43;101047.63;5065990;28;20221;-80
2021/10/28 02:41:18;;;;;;;7.43;6.73;;;;;;;10.56;89.42;101053.69;5080988;28;20247;-79
2021/10/28 02:43:44;;;;;;;8.87;8.00;;;;;;;10.47;89.67;101042.44;5073076;28;20281;-79
2021/10/28 02:46:12;;;;;;;7.13;6.53;;;;;;;10.50;89.54;101038.94;5066439;28;20284;-79
2021/10/28 02:48:38;;;;;;;7.37;6.67;;;;;;;10.49;89.46;101042.44;5067012;28;20230;-80
2021/10/28 02:51:05;;;;;;;6.47;5.87;;;;;;;10.53;89.14;101052.81;5067446;28;20228;-79
2021/10/28 02:53:31;;;;;;;8.20;7.40;;;;;;;10.47;89.38;101045.06;5064666;28;20789;-80
2021/10/28 02:55:58;;;;;;;11.63;6.73;;;;;;;10.44;89.68;101041.59;5058887;28;20256;-80
2021/10/28 02:58:24;;;;;;;7.93;7.33;;;;;;;10.44;89.86;101039.84;5074570;28;20699;-80
2021/10/28 03:00:50;;;;;;;8.13;7.53;;;;;;;10.41;90.03;101026.84;5059161;28;20198;-80
2021/10/28 03:03:18;;;;;;;8.80;8.07;;;;;;;10.31;90.23;101028.66;5066482;28;20217;-81
2021/10/28 03:05:45;;;;;;;9.30;8.50;;;;;;;10.29;90.65;100991.25;5070366;28;20678;-80
2021/10/28 03:08:11;;;;;;;9.93;9.03;;;;;;;10.36;90.58;101006.88;5069373;28;20210;-79
2021/10/28 03:10:38;;;;;;;9.43;8.63;;;;;;;10.40;90.29;101012.03;5066900;28;20299;-80
2021/10/28 03:13:04;;;;;;;8.20;7.50;;;;;;;10.40;90.09;101016.41;5072872;28;20225;-80
2021/10/28 03:15:35;;;;;;;9.83;7.53;;;;;;;10.42;89.92;101019.88;5059512;28;20212;-80
2021/10/28 03:18:21;;;;;;;9.27;8.40;;;;;;;10.46;89.78;101032.88;5059189;28;20236;-81
2021/10/28 03:26:17;;;;;;;9.80;9.00;;;;;;;10.46;89.50;101043.31;5065487;28;20219;-80
2021/10/28 03:28:44;;;;;;;9.33;8.53;;;;;;;10.44;89.26;101046.81;5075127;28;20263;-80
2021/10/28 03:31:10;;;;;;;9.53;8.83;;;;;;;10.46;89.33;101052.88;5063952;28;20258;-80
2021/10/28 03:33:38;;;;;;;8.73;8.03;;;;;;;10.40;89.59;101043.38;5068307;28;20225;-80
2021/10/28 03:36:12;;;;;;;8.20;7.60;;;;;;;10.37;89.34;101048.63;5078604;28;20201;-80
2021/10/28 03:38:49;;;;;;;7.87;7.17;;;;;;;10.33;89.40;101042.56;5066399;28;20197;-80
2021/10/28 03:41:49;;;;;;;7.93;7.13;;;;;;;10.33;89.41;101037.34;5069931;28;20193;-80
2021/10/28 03:50:30;;;;;;;7.87;7.17;;;;;;;10.17;90.17;101022.66;5046496;28;20397;-80
2021/10/28 04:04:32;;;;;;;10.77;8.10;;;;;;;10.07;90.86;101010.59;5045910;28;20342;-80
2021/10/28 04:07:23;;;;;;;8.53;7.83;;;;;;;10.12;90.93;100994.00;5078744;28;20207;-79
2021/10/28 04:21:09;;;;;;;7.93;7.23;;;;;;;10.20;90.86;101006.97;5035839;28;20225;-80
2021/10/28 04:29:05;;;;;;;6.83;6.23;;;;;;;10.15;90.77;100985.28;5076992;28;20745;-79
2021/10/28 04:31:35;;;;;;;6.63;6.10;;;;;;;10.14;90.51;100993.97;5067802;28;20601;-80
2021/10/28 04:34:05;;;;;;;6.23;5.77;;;;;;;10.04;90.99;100974.94;5067944;28;20236;-80
2021/10/28 04:36:33;;;;;;;6.97;6.27;;;;;;;9.94;91.25;100974.13;5060320;28;20217;-81
2021/10/28 04:39:00;;;;;;;8.53;7.73;;;;;;;9.91;91.85;100953.31;5058847;28;20259;-79
2021/10/28 04:41:28;;;;;;;8.53;7.70;;;;;;;9.89;92.09;100947.25;5059642;28;20338;-79
2021/10/28 04:43:55;;;;;;;8.00;7.20;;;;;;;10.00;91.78;100948.91;5074728;28;20219;-80
2021/10/28 04:46:21;;;;;;;7.20;6.60;;;;;;;10.02;92.16;100954.97;5069044;28;20292;-80
2021/10/28 04:48:48;;;;;;;6.77;6.17;;;;;;;10.06;91.63;100964.50;5069836;28;20552;-80
2021/10/28 04:51:15;;;;;;;7.33;6.63;;;;;;;10.09;91.20;100977.53;5077522;28;20224;-80
2021/10/28 04:53:42;;;;;;;6.30;5.80;;;;;;;10.10;90.73;100994.88;5070402;28;20653;-79
2021/10/28 04:56:08;;;;;;;6.03;5.60;;;;;;;10.10;90.70;101000.09;5064735;28;20205;-79
2021/10/28 04:58:36;;;;;;;6.40;5.90;;;;;;;10.09;90.78;100994.03;5070019;28;20206;-80
2021/10/28 05:01:02;;;;;;;6.33;5.83;;;;;;;10.06;90.95;100998.41;5070876;28;20194;-80
2021/10/28 05:03:29;;;;;;;6.20;5.80;;;;;;;10.05;90.63;100994.03;5069026;28;20628;-80
2021/10/28 05:05:55;;;;;;;5.93;5.33;;;;;;;10.05;90.32;100994.03;5078386;28;20201;-79
2021/10/28 05:08:21;;;;;;;5.87;5.40;;;;;;;10.04;90.22;100995.78;5067501;28;20193;-80
2021/10/28 05:10:48;;;;;;;6.30;5.80;;;;;;;10.06;89.95;101003.63;5058530;28;20229;-80
2021/10/28 05:13:15;;;;;;;7.97;6.43;;;;;;;10.01;89.56;101014.09;5058940;28;20719;-80
2021/10/28 05:15:45;;;;;;;6.20;5.60;;;;;;;10.00;89.29;101027.13;5062211;28;20205;-80
2021/10/28 05:18:12;;;;;;;6.97;6.37;;;;;;;9.94;89.32;101021.06;5069974;28;20262;-80
2021/10/28 05:20:39;;;;;;;5.80;5.40;;;;;;;9.92;89.29;101028.03;5074781;28;20260;-80
2021/10/28 05:23:06;;;;;;;5.90;5.50;;;;;;;9.90;89.29;101036.75;5067369;28;20365;-80
2021/10/28 05:25:33;;;;;;;6.87;6.37;;;;;;;9.91;88.72;101047.19;5062684;28;20197;-80
2021/10/28 05:28:00;;;;;;;7.07;6.47;;;;;;;9.81;88.92;101044.63;5071523;28;20204;-80
2021/10/28 05:30:27;;;;;;;7.40;6.73;;;;;;;9.79;89.08;101030.75;5075794;28;20577;-79
2021/10/28 05:32:55;;;;;;;7.20;6.70;;;;;;;9.80;89.89;101006.41;5071625;28;20715;-79
2021/10/28 05:35:22;;;;;;;6.77;6.27;;;;;;;9.79;89.94;101002.06;5062372;28;20198;-80
2021/10/28 05:37:48;;;;;;;7.07;6.37;;;;;;;9.82;89.77;100996.84;5062325;28;20197;-79
2021/10/28 05:40:14;;;;;;;6.10;5.63;;;;;;;9.85;89.66;100999.41;5057111;28;20198;-79
2021/10/28 05:42:43;;;;;;;6.10;5.53;;;;;;;9.80;89.41;101015.09;5061451;28;20923;-79
2021/10/28 05:45:10;;;;;;;5.37;4.93;;;;;;;9.73;89.46;101006.47;5056443;28;20212;-81
2021/10/28 05:47:37;;;;;;;5.50;5.10;;;;;;;9.69;89.76;101001.25;5059807;28;20205;-80
2021/10/28 05:50:06;;;;;;;5.60;5.13;;;;;;;9.70;89.77;100989.97;5055698;28;20197;-81
2021/10/28 05:52:34;;;;;;;7.80;6.97;;;;;;;9.70;89.50;100998.66;5057875;28;20252;-82
2021/10/28 05:55:01;;;;;;;7.40;6.73;;;;;;;9.77;89.52;101003.81;5058735;28;20215;-81
2021/10/28 05:57:28;;;;;;;7.17;6.57;;;;;;;9.74;89.93;100994.28;5058110;28;20227;-81
2021/10/28 05:59:55;;;;;;;7.23;6.63;;;;;;;9.75;90.47;100972.53;5057815;28;20731;-81
2021/10/28 06:02:21;;;;;;;7.73;7.03;;;;;;;9.77;90.52;100965.56;5057236;28;20220;-81
2021/10/28 06:04:48;;;;;;;6.67;6.13;;;;;;;9.74;90.42;100976.03;5058408;28;20205;-81
2021/10/28 06:07:16;;;;;;;6.33;5.83;;;;;;;9.69;90.64;100960.44;5056918;28;20228;-80
2021/10/28 06:09:42;;;;;;;7.77;6.63;;;;;;;9.70;90.97;100954.31;5056301;28;20198;-80
2021/10/28 06:12:10;;;;;;;8.00;7.20;;;;;;;9.70;90.38;100951.72;5055851;28;20225;-81
2021/10/28 06:14:37;;;;;;;6.87;6.27;;;;;;;9.69;90.64;100950.00;5055506;28;20232;-79
2021/10/28 06:17:07;;;;;;;6.77;6.17;;;;;;;9.66;91.08;100942.19;5054254;28;20202;-81
2021/10/28 06:19:34;;;;;;;7.40;6.70;;;;;;;9.63;91.41;100930.91;5059521;28;20209;-81
2021/10/28 06:22:01;;;;;;;7.57;6.27;;;;;;;9.64;91.59;100938.72;5055459;28;20627;-80
2021/10/28 06:24:28;;;;;;;7.60;6.90;;;;;;;9.66;91.25;100931.78;5057247;28;20241;-81
2021/10/28 06:26:55;;;;;;;7.37;6.77;;;;;;;9.68;91.80;100934.38;5059844;28;20197;-81
2021/10/28 06:29:22;;;;;;;6.67;6.17;;;;;;;9.63;91.83;100926.59;5058889;28;20248;-82
2021/10/28 06:31:49;;;;;;;8.17;7.47;;;;;;;9.62;92.19;100916.16;5058981;28;20652;-80
2021/10/28 06:34:19;;;;;;;7.23;6.57;;;;;;;9.56;92.81;100916.22;5054232;28;20300;-80
2021/10/28 06:36:46;;;;;;;5.67;5.27;;;;;;;9.56;92.67;100904.03;5059835;28;20205;-80
2021/10/28 06:39:13;;;;;;;6.30;5.83;;;;;;;9.62;92.64;100901.38;5065635;28;20307;-81
2021/10/28 06:41:41;;;;;;;6.10;5.57;;;;;;;9.69;92.65;100907.41;5059353;28;20615;-82
2021/10/28 06:44:08;;;;;;;7.00;6.00;;;;;;;9.68;92.26;100914.38;5054622;28;20220;-79
2021/10/28 06:46:35;;;;;;;9.00;5.27;;;;;;;9.71;92.19;100919.56;5053317;28;20194;-78
2021/10/28 06:49:03;;;;;;;6.23;5.73;;;;;;;9.68;92.29;100926.56;5051510;28;20232;-77
2021/10/28 06:51:32;;;;;;;5.80;5.40;;;;;;;9.70;92.02;100920.44;5050785;28;20217;-77
2021/10/28 06:54:04;;;;;;;5.53;5.13;;;;;;;9.70;92.12;100925.66;5051453;28;20282;-77
2021/10/28 06:56:42;;;;;;;6.70;6.07;;;;;;;9.73;91.86;100936.06;5051705;28;20213;-77
2021/10/28 07:04:38;;;;;;;6.50;5.90;;;;;;;9.73;91.67;100929.97;5048687;28;20221;-76
2021/10/28 07:07:04;;;;;;;6.93;6.33;;;;;;;9.75;91.80;100933.44;5053809;28;20255;-77
2021/10/28 07:09:32;;;;;;;6.67;6.07;;;;;;;9.78;91.92;100937.78;5054732;28;20210;-78
2021/10/28 07:12:08;;;;;;;6.43;5.77;;;;;;;9.78;91.77;100932.56;5053356;28;20258;-77
2021/10/28 07:14:36;;;;;;;6.80;6.10;;;;;;;9.82;91.75;100932.50;5052011;28;20584;-76
2021/10/28 07:17:14;;;;;;;7.20;6.67;;;;;;;9.89;91.18;100946.34;5053385;28;20208;-76
2021/10/28 07:19:56;;;;;;;6.60;6.00;;;;;;;9.83;91.66;100936.88;5050035;28;20208;-77
2021/10/28 07:25:23;;;;;;;5.60;5.10;;;;;;;9.94;91.69;100936.78;5051356;28;20204;-76
2021/10/28 07:27:58;;;;;;;6.70;6.10;;;;;;;10.02;90.80;100955.81;5051226;28;20308;-76
2021/10/28 07:30:35;;;;;;;6.90;6.20;;;;;;;9.93;91.01;100948.94;5052334;28;20204;-77
2021/10/28 07:33:21;;;;;;;5.80;5.40;;;;;;;10.00;91.19;100951.50;5050065;28;20235;-76
2021/10/28 07:36:02;;;;;;;6.20;5.73;;;;;;;10.05;91.26;100936.66;5054412;28;20212;-77
2021/10/28 07:57:51;;;;;;;5.30;4.80;;;;;;;9.79;93.09;100877.81;5046068;28;20231;-77
2021/10/28 08:19:43;;;;;;;5.50;4.63;;;;;;;9.99;93.35;100848.06;5050242;28;20199;-77
2021/10/28 08:22:15;;;;;;;4.60;4.20;;;;;;;10.08;92.95;100855.78;5049766;28;20205;-77
2021/10/28 08:30:12;;;;;;;6.63;6.13;;;;;;;10.15;92.02;100888.78;5049333;28;20251;-77
2021/10/28 08:32:39;;;;;;;6.40;5.80;;;;;;;10.24;91.67;100898.25;5053096;28;20226;-77
2021/10/28 08:35:09;;;;;;;6.80;6.20;;;;;;;10.36;91.19;100911.19;5053627;28;20227;-76
2021/10/28 08:37:40;;;;;;;6.57;6.07;;;;;;;10.37;90.46;100919.91;5053281;28;20198;-76
2021/10/28 08:40:09;;;;;;;6.73;6.23;;;;;;;10.47;90.21;100929.34;5054646;28;20616;-77
2021/10/28 08:42:37;;;;;;;7.43;6.73;;;;;;;10.48;89.79;100933.69;5054353;28;20240;-76
2021/10/28 08:45:04;;;;;;;8.87;7.00;;;;;;;10.58;89.51;100952.72;5056414;28;20349;-76
2021/10/28 08:47:31;;;;;;;7.97;7.17;;;;;;;10.67;88.12;100982.22;5055687;28;20198;-76
2021/10/28 08:50:00;;;;;;;6.97;6.47;;;;;;;10.74;88.17;100988.22;5057252;28;20202;-76
2021/10/28 08:52:41;;;;;;;7.13;6.53;;;;;;;10.73;88.18;100976.91;5054240;28;20233;-76
2021/10/28 08:55:19;;;;;;;6.97;6.37;;;;;;;10.83;87.88;100993.34;5054847;28;20197;-76
2021/10/28 08:58:08;;;;;;;7.53;6.37;;;;;;;10.88;87.38;101009.84;5051527;28;20292;-76
2021/10/28 09:25:35;;;;;;;6.33;5.83;;;;;;;11.46;83.90;101105.00;5047602;28;20212;-77
2021/10/28 09:28:06;;;;;;;5.30;4.80;;;;;;;11.41;84.49;101098.94;5055760;28;20202;-76
2021/10/28 09:30:40;;;;;;;5.53;5.13;;;;;;;11.44;84.88;101070.16;5054382;28;20711;-76
2021/10/28 09:33:08;;;;;;;5.93;5.30;;;;;;;11.46;83.44;101097.16;5052207;28;20723;-76
2021/10/28 09:44:46;;;;;;;4.97;4.57;;;;;;;11.89;80.94;101203.91;5050803;28;20236;-77
2021/10/28 09:47:32;;;;;;;5.70;5.23;;;;;;;11.91;80.15;101216.94;5050852;28;20209;-77
2021/10/28 09:50:07;;;;;;;5.53;5.03;;;;;;;11.99;79.68;101236.06;5051848;28;20207;-77
2021/10/28 09:52:35;;;;;;;4.93;4.63;;;;;;;12.00;80.79;101208.13;5051625;28;20271;-77
2021/10/28 09:57:59;;;;;;;4.93;4.53;;;;;;;12.05;80.14;101215.03;5053349;28;20198;-77
2021/10/28 10:00:34;;;;;;;5.47;5.07;;;;;;;12.18;79.17;101256.75;5053469;28;20219;-77
2021/10/28 10:03:08;;;;;;;5.37;4.87;;;;;;;12.31;77.21;101310.69;5053335;28;20218;-76
2021/10/28 10:05:35;;;;;;;5.10;4.70;;;;;;;12.37;77.98;101299.25;5053572;28;20257;-77
2021/10/28 10:08:06;;;;;;;4.60;4.20;;;;;;;12.35;78.20;101286.22;5053668;28;20580;-77
2021/10/28 10:10:33;;;;;;;5.00;4.60;;;;;;;12.36;78.26;101279.22;5052970;28;20775;-77
2021/10/28 10:13:02;;;;;;;4.97;4.47;;;;;;;12.38;78.84;101257.34;5053307;28;20231;-76
2021/10/28 10:15:29;;;;;;;4.30;4.00;;;;;;;12.31;79.44;101238.25;5053566;28;20293;-77
2021/10/28 10:17:59;;;;;;;4.37;4.00;;;;;;;12.41;77.81;101270.41;5052211;28;20206;-77
2021/10/28 10:20:32;;;;;;;4.80;3.97;;;;;;;12.45;77.59;101293.06;5052012;28;20198;-77
2021/10/28 10:23:17;;;;;;;4.00;3.70;;;;;;;12.60;76.39;101341.72;5049197;28;20663;-77
2021/10/28 10:25:55;;;;;;;3.90;3.50;;;;;;;12.61;76.90;101304.19;5050432;28;20552;-78
2021/10/28 10:29:13;;;;;;;3.17;2.97;;;;;;;12.62;75.68;101352.19;5050682;28;20512;-77
2021/10/28 11:28:25;;;;;;;1.33;1.13;;;;;;;13.78;64.66;101716.16;5051920;28;20282;-77
2021/10/28 12:21:23;;;;;;;2.97;1.13;;;;;;;21.55;44.49;102382.84;5054608;28;20211;-76
2021/10/28 12:44:16;;;;;;;1.57;1.17;;;;;;;15.99;58.87;101637.97;5059560;28;20252;-75
2021/10/28 12:47:02;;;;;;;1.40;1.30;;;;;;;15.68;56.12;101730.75;5051626;28;20896;-75
2021/10/28 12:50:00;;;;;;;2.43;1.67;;;;;;;15.53;57.85;101697.69;5063439;28;20212;-76
2021/10/28 12:52:43;;;;;;;3.27;1.60;;;;;;;15.46;58.65;101654.84;5059238;28;20237;-75
2021/10/28 13:03:55;;;;;;;1.57;1.40;;;;;;;15.08;58.28;101639.78;5065961;28;20245;-76
2021/10/28 13:53:34;;;;;;;2.90;2.10;;;;;;;14.38;69.04;101169.00;5022468;28;20268;-76
2021/10/28 14:23:42;;;;;;;5.40;2.80;;;;;;;14.40;72.09;101059.53;4986439;28;20264;-74
2021/10/28 14:37:32;;;;;;;8.23;1.87;;;;;;;13.93;74.61;100969.66;5049206;28;20257;-75
2021/10/28 15:02:22;;;;;;;2.30;1.73;;;;;;;13.57;74.51;100978.34;5048924;28;20259;-75
2021/10/28 15:29:31;;;;;;;1.97;1.77;;;;;;;13.09;77.04;100843.06;5045420;28;20268;-75
2021/10/28 15:34:54;;;;;;;2.37;1.80;;;;;;;12.99;78.70;100791.75;5048660;28;20209;-75
2021/10/28 15:37:33;;;;;;;1.80;1.70;;;;;;;13.01;78.74;100786.47;5063847;28;20201;-75
2021/10/28 15:40:07;;;;;;;1.73;1.50;;;;;;;12.94;78.68;100784.88;5065891;28;20571;-74
2021/10/28 15:54:20;;;;;;;3.53;1.70;;;;;;;12.80;79.71;100749.38;5061801;28;20276;-75
2021/10/28 16:00:01;;;;;;;2.60;1.53;;;;;;;12.79;79.27;100742.44;5053880;28;20332;-74
2021/10/28 16:21:53;;;;;;;2.07;1.60;;;;;;;12.39;79.95;100721.50;5051421;28;20647;-75
2021/10/28 16:24:21;;;;;;;2.07;1.87;;;;;;;12.42;80.02;100724.06;5058589;28;20217;-75
2021/10/28 16:26:50;;;;;;;3.63;1.87;;;;;;;12.31;80.93;100695.53;5054718;28;20209;-75
2021/10/28 16:29:17;;;;;;;1.53;1.43;;;;;;;12.34;80.67;100700.66;5059309;28;20281;-75
2021/10/28 16:31:45;;;;;;;2.70;1.63;;;;;;;12.31;80.18;100709.47;5051664;28;20201;-74
2021/10/28 16:34:12;;;;;;;2.07;1.70;;;;;;;12.26;80.97;100690.38;5051311;28;20283;-75
2021/10/28 16:36:39;;;;;;;1.67;1.57;;;;;;;12.29;80.76;100698.16;5052037;28;20897;-75
2021/10/28 16:39:10;;;;;;;2.70;1.50;;;;;;;12.25;79.92;100706.09;5066188;28;20308;-76
2021/10/28 16:41:37;;;;;;;1.93;1.70;;;;;;;12.22;80.26;100703.56;5046650;28;20201;-75
2021/10/28 16:44:05;;;;;;;1.90;1.67;;;;;;;12.20;80.10;100702.75;5070317;28;20216;-75
2021/10/28 16:46:32;;;;;;;2.30;1.53;;;;;;;12.17;79.96;100703.66;5065934;28;20263;-75
2021/10/28 16:48:59;;;;;;;1.90;1.80;;;;;;;12.16;80.08;100706.31;5061480;28;20208;-76
2021/10/28 16:51:27;;;;;;;2.10;2.00;;;;;;;12.10;79.86;100712.53;5069052;28;20667;-75
2021/10/28 16:53:54;;;;;;;1.97;1.70;;;;;;;12.05;80.17;100711.75;5061550;28;20221;-75
2021/10/28 16:56:21;;;;;;;2.00;1.90;;;;;;;12.02;80.01;100717.91;5055429;28;20251;-75
2021/10/28 16:58:48;;;;;;;2.73;1.80;;;;;;;11.94;79.90;100721.59;5050596;28;20259;-75
2021/10/28 17:01:16;;;;;;;3.57;2.33;;;;;;;11.90;80.31;100702.47;5058464;28;20245;-75
2021/10/28 17:03:42;;;;;;;3.63;1.43;;;;;;;11.82;80.41;100706.97;5058433;28;20214;-75
2021/10/28 17:06:13;;;;;;;2.43;1.70;;;;;;;11.73;81.23;100687.97;5050717;28;20245;-76
2021/10/28 17:08:40;;;;;;;1.60;1.50;;;;;;;11.79;80.71;100688.72;5058201;28;20209;-75
2021/10/28 17:11:07;;;;;;;1.97;1.63;;;;;;;11.80;79.90;100698.28;5050411;28;20683;-75
2021/10/28 17:13:33;;;;;;;3.73;1.90;;;;;;;11.78;80.02;100705.31;5062792;28;20225;-75
2021/10/28 17:15:59;;;;;;;2.27;2.00;;;;;;;11.78;80.29;100694.84;5052229;28;20232;-74
2021/10/28 17:18:27;;;;;;;2.53;1.67;;;;;;;11.72;80.27;100688.84;5050086;28;20699;-75
2021/10/28 17:20:55;;;;;;;3.47;2.10;;;;;;;11.61;81.27;100663.78;5057941;28;20247;-75
2021/10/28 17:23:30;;;;;;;2.33;2.13;;;;;;;11.45;82.90;100627.47;5065630;28;20217;-75
2021/10/28 17:25:59;;;;;;;2.23;2.13;;;;;;;11.45;82.61;100624.00;5070146;28;20212;-75
2021/10/28 17:28:26;;;;;;;2.40;2.20;;;;;;;11.43;82.47;100620.56;5060047;28;20231;-76
2021/10/28 17:30:52;;;;;;;3.17;1.97;;;;;;;11.43;82.05;100634.50;5068954;28;20206;-74
2021/10/28 17:33:19;;;;;;;2.87;2.33;;;;;;;11.40;81.76;100649.41;5055369;28;20240;-75
2021/10/28 17:35:46;;;;;;;2.77;2.43;;;;;;;11.33;81.71;100640.78;5065487;28;20213;-74
2021/10/28 17:38:13;;;;;;;3.00;2.60;;;;;;;11.26;82.26;100640.06;5057548;28;20732;-74
2021/10/28 17:40:39;;;;;;;3.67;2.43;;;;;;;11.28;82.03;100646.13;5069157;28;20209;-74
2021/10/28 17:43:10;;;;;;;6.27;3.10;;;;;;;11.22;81.68;100650.56;5042386;28;20234;-75
2021/10/28 17:45:37;;;;;;;3.83;3.03;;;;;;;11.28;81.79;100655.72;5051162;28;20256;-74
2021/10/28 17:48:04;;;;;;;5.97;5.50;;;;;;;11.25;81.15;100674.91;5065741;28;20201;-75
2021/10/28 17:50:31;;;;;;;6.00;5.50;;;;;;;11.30;79.77;100735.81;5056851;28;20196;-75
2021/10/28 17:52:59;;;;;;;9.97;9.13;;;;;;;11.31;79.32;100750.56;5052013;28;20379;-75
2021/10/28 17:55:25;;;;;;;10.13;9.13;;;;;;;11.26;79.55;100755.03;5063998;28;20668;-75
2021/10/28 17:57:51;;;;;;;9.70;9.00;;;;;;;11.27;79.54;100750.66;5058957;28;20627;-77
2021/10/28 18:00:20;;;;;;;8.00;7.20;;;;;;;11.25;79.60;100736.75;5058969;28;20208;-77
2021/10/28 18:02:47;;;;;;;10.10;9.40;;;;;;;11.12;78.36;100790.97;5060098;28;20234;-77
2021/10/28 18:05:14;;;;;;;15.90;14.80;;;;;;;11.20;78.23;100780.38;5063188;28;20665;-77
2021/10/28 18:07:40;;;;;;;12.43;11.63;;;;;;;11.17;77.89;100793.50;5055439;28;20722;-77
2021/10/28 18:10:09;;;;;;;6.50;6.00;;;;;;;11.11;76.26;100825.81;5061960;28;20204;-78
2021/10/28 18:12:37;;;;;;;5.33;4.83;;;;;;;11.26;74.86;100917.06;5062930;28;20205;-75
2021/10/28 18:15:05;;;;;;;5.50;5.03;;;;;;;11.33;75.71;100889.06;5059003;28;20717;-75
2021/10/28 18:17:32;;;;;;;4.93;4.53;;;;;;;11.36;74.29;100909.06;5067870;28;20205;-75
2021/10/28 18:19:58;;;;;;;10.37;5.90;;;;;;;11.37;75.97;100876.84;5066486;28;20627;-74
2021/10/28 18:22:25;;;;;;;4.77;4.37;;;;;;;11.46;78.21;100775.59;5053790;28;20205;-75
2021/10/28 18:24:51;;;;;;;4.37;4.07;;;;;;;11.47;73.46;100905.41;5058332;28;20271;-74
2021/10/28 18:27:19;;;;;;;34.20;8.63;;;;;;;11.69;77.87;100877.19;5052157;28;20758;-74
2021/10/28 18:29:46;;;;;;;10.20;5.77;;;;;;;11.79;78.08;100832.56;5054209;28;20220;-75
2021/10/28 18:32:13;;;;;;;13.43;6.27;;;;;;;11.90;75.25;100915.22;5059094;28;20553;-77
2021/10/28 18:34:40;;;;;;;4.53;3.80;;;;;;;11.92;72.39;100975.38;5068747;28;20229;-77
2021/10/28 18:37:08;;;;;;;4.30;4.00;;;;;;;11.99;73.19;100971.78;5059778;28;20241;-76
2021/10/28 18:39:35;;;;;;;3.83;3.43;;;;;;;11.99;71.70;101000.56;5068608;28;20250;-76
2021/10/28 18:42:02;;;;;;;6.57;5.17;;;;;;;11.98;72.13;100979.66;5060745;28;20269;-76
2021/10/28 18:44:30;;;;;;;4.83;4.47;;;;;;;12.13;74.20;100916.59;5052305;28;20219;-76
2021/10/28 18:46:56;;;;;;;4.40;4.07;;;;;;;12.21;73.29;100917.31;5064669;28;20744;-76
2021/10/28 18:49:23;;;;;;;4.40;4.00;;;;;;;12.24;73.68;100924.25;5059996;28;20562;-77
2021/10/28 18:51:50;;;;;;;4.00;3.60;;;;;;;12.18;70.93;100997.66;5061221;28;20688;-77
2021/10/28 18:54:17;;;;;;;4.90;4.50;;;;;;;12.23;72.14;100990.56;5047901;28;20222;-74
2021/10/28 18:56:44;;;;;;;5.13;4.73;;;;;;;12.27;74.30;100919.81;5047572;28;20252;-74
2021/10/28 18:59:10;;;;;;;6.67;4.97;;;;;;;12.22;72.74;100939.97;5047973;28;20255;-74
2021/10/28 19:01:38;;;;;;;5.17;4.87;;;;;;;12.18;72.67;100945.28;5052322;28;20681;-75
2021/10/28 19:04:04;;;;;;;5.40;4.87;;;;;;;12.09;74.01;100918.41;5049643;28;20264;-72